sensor_id;sensor_type;location;lat;lon;timestamp;P1;durP1;ratioP1;P2;durP2;ratioP2
9924;SDS011;5001;51.674;7.868;2022-12-26T00:02:04;17.20;;;12.63;;
9924;SDS011;5001;51.674;7.868;2022-12-26T00:04:31;18.60;;;12.37;;
9924;SDS011;5001;51.674;7.868;2022-12-26T00:07:21;18.80;;;11.77;;
9924;SDS011;5001;51.674;7.868;2022-12-26T00:09:48;18.33;;;12.47;;
9924;SDS011;5001;51.674;7.868;2022-12-26T00:12:15;20.33;;;12.93;;
9924;SDS011;5001;51.674;7.868;2022-12-26T00:14:42;17.43;;;11.43;;
9924;SDS011;5001;51.674;7.868;2022-12-26T00:17:12;19.43;;;12.60;;
9924;SDS011;5001;51.674;7.868;2022-12-26T00:19:46;18.70;;;12.30;;
9924;SDS011;5001;51.674;7.868;2022-12-26T00:22:14;20.73;;;14.70;;
9924;SDS011;5001;51.674;7.868;2022-12-26T00:24:41;19.20;;;12.70;;
9924;SDS011;5001;51.674;7.868;2022-12-26T00:27:08;18.47;;;12.23;;
9924;SDS011;5001;51.674;7.868;2022-12-26T00:29:42;15.83;;;11.97;;
9924;SDS011;5001;51.674;7.868;2022-12-26T00:32:19;15.70;;;12.07;;
9924;SDS011;5001;51.674;7.868;2022-12-26T00:34:48;14.20;;;10.13;;
9924;SDS011;5001;51.674;7.868;2022-12-26T00:37:15;13.83;;;10.07;;
9924;SDS011;5001;51.674;7.868;2022-12-26T00:39:45;17.93;;;10.57;;
9924;SDS011;5001;51.674;7.868;2022-12-26T00:42:15;15.10;;;10.33;;
9924;SDS011;5001;51.674;7.868;2022-12-26T00:44:42;12.67;;;9.00;;
9924;SDS011;5001;51.674;7.868;2022-12-26T00:47:09;13.47;;;9.67;;
9924;SDS011;5001;51.674;7.868;2022-12-26T00:49:36;10.67;;;7.97;;
9924;SDS011;5001;51.674;7.868;2022-12-26T00:52:23;11.30;;;7.80;;
9924;SDS011;5001;51.674;7.868;2022-12-26T00:54:51;12.20;;;7.60;;
9924;SDS011;5001;51.674;7.868;2022-12-26T00:57:18;11.17;;;7.50;;
9924;SDS011;5001;51.674;7.868;2022-12-26T00:59:45;9.83;;;6.90;;
9924;SDS011;5001;51.674;7.868;2022-12-26T01:02:12;10.70;;;7.77;;
9924;SDS011;5001;51.674;7.868;2022-12-26T01:04:57;17.53;;;13.17;;
9924;SDS011;5001;51.674;7.868;2022-12-26T01:07:24;11.23;;;7.73;;
9924;SDS011;5001;51.674;7.868;2022-12-26T01:09:51;8.93;;;7.63;;
9924;SDS011;5001;51.674;7.868;2022-12-26T01:12:18;7.43;;;5.77;;
9924;SDS011;5001;51.674;7.868;2022-12-26T01:14:45;8.73;;;6.53;;
9924;SDS011;5001;51.674;7.868;2022-12-26T01:17:12;9.77;;;6.17;;
9924;SDS011;5001;51.674;7.868;2022-12-26T01:19:39;9.80;;;7.53;;
9924;SDS011;5001;51.674;7.868;2022-12-26T01:22:06;8.23;;;6.27;;
9924;SDS011;5001;51.674;7.868;2022-12-26T01:24:33;9.53;;;7.07;;
9924;SDS011;5001;51.674;7.868;2022-12-26T01:27:00;7.53;;;5.87;;
9924;SDS011;5001;51.674;7.868;2022-12-26T01:29:27;6.50;;;5.17;;
9924;SDS011;5001;51.674;7.868;2022-12-26T01:31:54;6.83;;;5.87;;
9924;SDS011;5001;51.674;7.868;2022-12-26T01:34:21;7.53;;;6.40;;
9924;SDS011;5001;51.674;7.868;2022-12-26T01:36:48;6.43;;;5.40;;
9924;SDS011;5001;51.674;7.868;2022-12-26T01:39:17;7.83;;;6.00;;
9924;SDS011;5001;51.674;7.868;2022-12-26T01:41:44;8.27;;;6.57;;
9924;SDS011;5001;51.674;7.868;2022-12-26T01:47:15;6.93;;;5.40;;
9924;SDS011;5001;51.674;7.868;2022-12-26T01:49:43;6.40;;;5.00;;
9924;SDS011;5001;51.674;7.868;2022-12-26T01:52:15;5.70;;;4.50;;
9924;SDS011;5001;51.674;7.868;2022-12-26T01:54:52;4.40;;;3.57;;
9924;SDS011;5001;51.674;7.868;2022-12-26T01:57:26;5.00;;;4.10;;
9924;SDS011;5001;51.674;7.868;2022-12-26T02:00:07;6.23;;;3.73;;
9924;SDS011;5001;51.674;7.868;2022-12-26T02:02:43;4.53;;;4.03;;
9924;SDS011;5001;51.674;7.868;2022-12-26T02:05:30;5.37;;;4.33;;
9924;SDS011;5001;51.674;7.868;2022-12-26T02:11:23;6.47;;;4.13;;
9924;SDS011;5001;51.674;7.868;2022-12-26T02:13:29;5.90;;;4.13;;
9924;SDS011;5001;51.674;7.868;2022-12-26T02:15:57;5.43;;;4.47;;
9924;SDS011;5001;51.674;7.868;2022-12-26T02:18:24;5.13;;;4.30;;
9924;SDS011;5001;51.674;7.868;2022-12-26T02:20:55;5.17;;;4.20;;
9924;SDS011;5001;51.674;7.868;2022-12-26T02:37:34;6.73;;;5.37;;
9924;SDS011;5001;51.674;7.868;2022-12-26T02:49:03;8.53;;;7.63;;
9924;SDS011;5001;51.674;7.868;2022-12-26T02:51:39;10.17;;;7.13;;
9924;SDS011;5001;51.674;7.868;2022-12-26T02:54:37;8.90;;;6.90;;
9924;SDS011;5001;51.674;7.868;2022-12-26T02:57:36;10.17;;;6.80;;
9924;SDS011;5001;51.674;7.868;2022-12-26T03:00:36;10.60;;;6.57;;
9924;SDS011;5001;51.674;7.868;2022-12-26T03:03:26;6.03;;;5.27;;
9924;SDS011;5001;51.674;7.868;2022-12-26T03:06:16;6.40;;;5.30;;
9924;SDS011;5001;51.674;7.868;2022-12-26T03:09:08;7.23;;;5.20;;
9924;SDS011;5001;51.674;7.868;2022-12-26T03:12:20;6.93;;;5.73;;
9924;SDS011;5001;51.674;7.868;2022-12-26T03:15:41;6.77;;;5.50;;
9924;SDS011;5001;51.674;7.868;2022-12-26T03:18:32;7.17;;;6.27;;
9924;SDS011;5001;51.674;7.868;2022-12-26T03:21:21;8.87;;;7.17;;
9924;SDS011;5001;51.674;7.868;2022-12-26T03:23:53;8.87;;;7.70;;
9924;SDS011;5001;51.674;7.868;2022-12-26T03:26:31;11.50;;;7.23;;
9924;SDS011;5001;51.674;7.868;2022-12-26T03:29:07;8.83;;;7.93;;
9924;SDS011;5001;51.674;7.868;2022-12-26T03:31:55;11.60;;;8.80;;
9924;SDS011;5001;51.674;7.868;2022-12-26T03:34:23;11.93;;;8.60;;
9924;SDS011;5001;51.674;7.868;2022-12-26T03:37:07;11.03;;;8.87;;
9924;SDS011;5001;51.674;7.868;2022-12-26T03:40:19;12.57;;;9.57;;
9924;SDS011;5001;51.674;7.868;2022-12-26T03:49:45;14.43;;;10.33;;
9924;SDS011;5001;51.674;7.868;2022-12-26T03:52:45;14.87;;;10.67;;
9924;SDS011;5001;51.674;7.868;2022-12-26T03:55:52;15.00;;;11.47;;
9924;SDS011;5001;51.674;7.868;2022-12-26T03:58:46;16.07;;;11.70;;
9924;SDS011;5001;51.674;7.868;2022-12-26T04:01:51;24.93;;;20.17;;
9924;SDS011;5001;51.674;7.868;2022-12-26T04:04:40;20.77;;;15.83;;
9924;SDS011;5001;51.674;7.868;2022-12-26T04:07:31;20.40;;;12.47;;
9924;SDS011;5001;51.674;7.868;2022-12-26T04:10:37;20.37;;;12.47;;
9924;SDS011;5001;51.674;7.868;2022-12-26T04:13:31;17.73;;;12.33;;
9924;SDS011;5001;51.674;7.868;2022-12-26T04:17:04;19.00;;;13.33;;
9924;SDS011;5001;51.674;7.868;2022-12-26T04:22:57;19.97;;;14.40;;
9924;SDS011;5001;51.674;7.868;2022-12-26T04:26:13;18.33;;;14.60;;
9924;SDS011;5001;51.674;7.868;2022-12-26T04:29:07;22.20;;;16.53;;
9924;SDS011;5001;51.674;7.868;2022-12-26T04:31:54;24.53;;;17.70;;
9924;SDS011;5001;51.674;7.868;2022-12-26T04:35:03;24.33;;;17.13;;
9924;SDS011;5001;51.674;7.868;2022-12-26T04:37:51;23.90;;;17.60;;
9924;SDS011;5001;51.674;7.868;2022-12-26T04:40:40;22.07;;;16.40;;
9924;SDS011;5001;51.674;7.868;2022-12-26T04:43:33;24.00;;;16.27;;
9924;SDS011;5001;51.674;7.868;2022-12-26T04:46:20;22.83;;;16.97;;
9924;SDS011;5001;51.674;7.868;2022-12-26T04:48:49;21.07;;;15.70;;
9924;SDS011;5001;51.674;7.868;2022-12-26T04:51:36;20.17;;;14.90;;
9924;SDS011;5001;51.674;7.868;2022-12-26T04:54:04;18.80;;;15.27;;
9924;SDS011;5001;51.674;7.868;2022-12-26T04:56:31;18.03;;;14.73;;
9924;SDS011;5001;51.674;7.868;2022-12-26T04:58:59;20.20;;;16.10;;
9924;SDS011;5001;51.674;7.868;2022-12-26T05:01:25;18.93;;;15.13;;
9924;SDS011;5001;51.674;7.868;2022-12-26T05:04:12;19.17;;;14.80;;
9924;SDS011;5001;51.674;7.868;2022-12-26T05:06:59;19.47;;;13.50;;
9924;SDS011;5001;51.674;7.868;2022-12-26T05:09:51;15.50;;;13.20;;
9924;SDS011;5001;51.674;7.868;2022-12-26T05:12:19;18.07;;;12.43;;
9924;SDS011;5001;51.674;7.868;2022-12-26T05:14:46;14.93;;;13.33;;
9924;SDS011;5001;51.674;7.868;2022-12-26T05:17:13;15.03;;;11.97;;
9924;SDS011;5001;51.674;7.868;2022-12-26T05:19:59;13.67;;;12.10;;
9924;SDS011;5001;51.674;7.868;2022-12-26T05:22:45;13.17;;;11.77;;
9924;SDS011;5001;51.674;7.868;2022-12-26T05:25:34;13.13;;;11.03;;
9924;SDS011;5001;51.674;7.868;2022-12-26T05:28:24;12.77;;;10.20;;
9924;SDS011;5001;51.674;7.868;2022-12-26T05:33:37;10.50;;;9.40;;
9924;SDS011;5001;51.674;7.868;2022-12-26T05:36:24;8.10;;;7.30;;
9924;SDS011;5001;51.674;7.868;2022-12-26T05:38:54;8.60;;;7.40;;
9924;SDS011;5001;51.674;7.868;2022-12-26T05:41:22;7.23;;;6.53;;
9924;SDS011;5001;51.674;7.868;2022-12-26T05:43:49;8.37;;;7.57;;
9924;SDS011;5001;51.674;7.868;2022-12-26T05:46:16;8.23;;;7.43;;
9924;SDS011;5001;51.674;7.868;2022-12-26T05:48:43;10.70;;;9.07;;
9924;SDS011;5001;51.674;7.868;2022-12-26T05:51:10;10.43;;;9.33;;
9924;SDS011;5001;51.674;7.868;2022-12-26T05:53:37;8.37;;;7.57;;
9924;SDS011;5001;51.674;7.868;2022-12-26T05:56:05;8.00;;;7.30;;
9924;SDS011;5001;51.674;7.868;2022-12-26T05:58:35;11.47;;;10.37;;
9924;SDS011;5001;51.674;7.868;2022-12-26T06:01:03;10.80;;;9.50;;
9924;SDS011;5001;51.674;7.868;2022-12-26T06:03:35;10.60;;;9.50;;
9924;SDS011;5001;51.674;7.868;2022-12-26T06:06:04;9.87;;;8.70;;
9924;SDS011;5001;51.674;7.868;2022-12-26T06:08:31;10.50;;;9.50;;
9924;SDS011;5001;51.674;7.868;2022-12-26T06:11:01;13.07;;;10.87;;
9924;SDS011;5001;51.674;7.868;2022-12-26T06:13:29;12.37;;;10.60;;
9924;SDS011;5001;51.674;7.868;2022-12-26T06:15:56;12.57;;;10.60;;
9924;SDS011;5001;51.674;7.868;2022-12-26T06:18:24;11.53;;;10.33;;
9924;SDS011;5001;51.674;7.868;2022-12-26T06:20:51;11.10;;;9.90;;
9924;SDS011;5001;51.674;7.868;2022-12-26T06:23:18;11.70;;;10.03;;
9924;SDS011;5001;51.674;7.868;2022-12-26T06:25:51;10.63;;;9.30;;
9924;SDS011;5001;51.674;7.868;2022-12-26T06:28:19;10.57;;;9.10;;
9924;SDS011;5001;51.674;7.868;2022-12-26T06:30:47;9.63;;;8.63;;
9924;SDS011;5001;51.674;7.868;2022-12-26T06:33:14;9.73;;;8.73;;
9924;SDS011;5001;51.674;7.868;2022-12-26T06:35:41;9.90;;;8.90;;
9924;SDS011;5001;51.674;7.868;2022-12-26T06:38:08;9.47;;;8.10;;
9924;SDS011;5001;51.674;7.868;2022-12-26T06:40:41;9.07;;;8.17;;
9924;SDS011;5001;51.674;7.868;2022-12-26T06:43:08;10.73;;;7.90;;
9924;SDS011;5001;51.674;7.868;2022-12-26T06:45:36;8.60;;;7.77;;
9924;SDS011;5001;51.674;7.868;2022-12-26T06:48:03;8.87;;;7.97;;
9924;SDS011;5001;51.674;7.868;2022-12-26T06:50:30;9.83;;;8.30;;
9924;SDS011;5001;51.674;7.868;2022-12-26T06:52:58;9.37;;;8.20;;
9924;SDS011;5001;51.674;7.868;2022-12-26T06:55:25;9.33;;;7.80;;
9924;SDS011;5001;51.674;7.868;2022-12-26T06:57:52;8.93;;;8.13;;
9924;SDS011;5001;51.674;7.868;2022-12-26T07:00:19;9.10;;;7.93;;
9924;SDS011;5001;51.674;7.868;2022-12-26T07:02:47;8.17;;;7.37;;
9924;SDS011;5001;51.674;7.868;2022-12-26T07:05:16;8.80;;;7.73;;
9924;SDS011;5001;51.674;7.868;2022-12-26T07:07:45;9.13;;;8.07;;
9924;SDS011;5001;51.674;7.868;2022-12-26T07:10:17;8.77;;;7.87;;
9924;SDS011;5001;51.674;7.868;2022-12-26T07:12:45;8.50;;;7.60;;
9924;SDS011;5001;51.674;7.868;2022-12-26T07:15:13;9.80;;;8.00;;
9924;SDS011;5001;51.674;7.868;2022-12-26T07:17:40;9.90;;;8.90;;
9924;SDS011;5001;51.674;7.868;2022-12-26T07:20:08;11.07;;;9.87;;
9924;SDS011;5001;51.674;7.868;2022-12-26T07:22:35;19.73;;;15.07;;
9924;SDS011;5001;51.674;7.868;2022-12-26T07:25:02;15.53;;;9.53;;
9924;SDS011;5001;51.674;7.868;2022-12-26T07:27:29;13.73;;;10.93;;
9924;SDS011;5001;51.674;7.868;2022-12-26T07:30:00;9.50;;;8.50;;
9924;SDS011;5001;51.674;7.868;2022-12-26T07:32:27;9.77;;;8.70;;
9924;SDS011;5001;51.674;7.868;2022-12-26T07:34:54;11.70;;;8.87;;
9924;SDS011;5001;51.674;7.868;2022-12-26T07:37:22;8.93;;;8.03;;
9924;SDS011;5001;51.674;7.868;2022-12-26T07:39:49;9.40;;;8.40;;
9924;SDS011;5001;51.674;7.868;2022-12-26T07:42:24;10.67;;;9.23;;
9924;SDS011;5001;51.674;7.868;2022-12-26T07:44:50;8.40;;;7.60;;
9924;SDS011;5001;51.674;7.868;2022-12-26T07:47:17;11.67;;;10.57;;
9924;SDS011;5001;51.674;7.868;2022-12-26T07:49:44;9.30;;;8.40;;
9924;SDS011;5001;51.674;7.868;2022-12-26T07:52:11;9.23;;;8.00;;
9924;SDS011;5001;51.674;7.868;2022-12-26T07:54:38;7.13;;;6.43;;
9924;SDS011;5001;51.674;7.868;2022-12-26T07:57:05;9.73;;;8.70;;
9924;SDS011;5001;51.674;7.868;2022-12-26T07:59:52;8.40;;;7.40;;
9924;SDS011;5001;51.674;7.868;2022-12-26T08:02:20;8.83;;;7.97;;
9924;SDS011;5001;51.674;7.868;2022-12-26T08:04:48;7.67;;;6.87;;
9924;SDS011;5001;51.674;7.868;2022-12-26T08:07:15;8.73;;;6.53;;
9924;SDS011;5001;51.674;7.868;2022-12-26T08:09:41;11.83;;;8.67;;
9924;SDS011;5001;51.674;7.868;2022-12-26T08:12:10;6.37;;;5.77;;
9924;SDS011;5001;51.674;7.868;2022-12-26T08:14:38;7.10;;;5.90;;
9924;SDS011;5001;51.674;7.868;2022-12-26T08:17:06;7.60;;;6.67;;
9924;SDS011;5001;51.674;7.868;2022-12-26T08:19:34;9.43;;;6.57;;
9924;SDS011;5001;51.674;7.868;2022-12-26T08:22:01;8.27;;;6.57;;
9924;SDS011;5001;51.674;7.868;2022-12-26T08:24:28;7.83;;;5.37;;
9924;SDS011;5001;51.674;7.868;2022-12-26T08:26:55;5.67;;;4.97;;
9924;SDS011;5001;51.674;7.868;2022-12-26T08:29:22;4.73;;;4.23;;
9924;SDS011;5001;51.674;7.868;2022-12-26T08:31:48;8.17;;;4.07;;
9924;SDS011;5001;51.674;7.868;2022-12-26T08:34:15;4.50;;;3.90;;
9924;SDS011;5001;51.674;7.868;2022-12-26T08:36:42;6.07;;;3.60;;
9924;SDS011;5001;51.674;7.868;2022-12-26T08:39:09;4.77;;;3.67;;
9924;SDS011;5001;51.674;7.868;2022-12-26T08:41:36;5.63;;;4.10;;
9924;SDS011;5001;51.674;7.868;2022-12-26T08:44:03;7.03;;;3.83;;
9924;SDS011;5001;51.674;7.868;2022-12-26T08:46:50;4.03;;;3.63;;
9924;SDS011;5001;51.674;7.868;2022-12-26T08:49:20;5.80;;;3.70;;
9924;SDS011;5001;51.674;7.868;2022-12-26T08:51:47;4.77;;;3.63;;
9924;SDS011;5001;51.674;7.868;2022-12-26T08:54:14;7.07;;;4.20;;
9924;SDS011;5001;51.674;7.868;2022-12-26T08:56:41;6.87;;;4.73;;
9924;SDS011;5001;51.674;7.868;2022-12-26T08:59:08;6.20;;;4.73;;
9924;SDS011;5001;51.674;7.868;2022-12-26T09:01:35;5.97;;;4.80;;
9924;SDS011;5001;51.674;7.868;2022-12-26T09:04:03;5.90;;;5.27;;
9924;SDS011;5001;51.674;7.868;2022-12-26T09:06:33;7.03;;;5.20;;
9924;SDS011;5001;51.674;7.868;2022-12-26T09:09:02;7.07;;;4.93;;
9924;SDS011;5001;51.674;7.868;2022-12-26T09:11:33;7.77;;;5.20;;
9924;SDS011;5001;51.674;7.868;2022-12-26T09:14:01;5.87;;;4.77;;
9924;SDS011;5001;51.674;7.868;2022-12-26T09:16:31;6.70;;;4.60;;
9924;SDS011;5001;51.674;7.868;2022-12-26T09:19:06;7.17;;;4.47;;
9924;SDS011;5001;51.674;7.868;2022-12-26T09:21:36;5.00;;;4.50;;
9924;SDS011;5001;51.674;7.868;2022-12-26T09:24:05;6.23;;;4.30;;
9924;SDS011;5001;51.674;7.868;2022-12-26T09:26:33;4.17;;;3.70;;
9924;SDS011;5001;51.674;7.868;2022-12-26T09:29:01;8.60;;;5.33;;
9924;SDS011;5001;51.674;7.868;2022-12-26T09:31:29;5.80;;;5.17;;
9924;SDS011;5001;51.674;7.868;2022-12-26T09:34:01;8.30;;;5.33;;
9924;SDS011;5001;51.674;7.868;2022-12-26T09:36:31;6.03;;;4.23;;
9924;SDS011;5001;51.674;7.868;2022-12-26T09:39:00;8.33;;;3.80;;
9924;SDS011;5001;51.674;7.868;2022-12-26T09:44:17;7.20;;;4.20;;
9924;SDS011;5001;51.674;7.868;2022-12-26T09:49:31;6.10;;;4.00;;
9924;SDS011;5001;51.674;7.868;2022-12-26T09:52:09;4.97;;;3.47;;
9924;SDS011;5001;51.674;7.868;2022-12-26T09:54:48;4.65;;;2.92;;
9924;SDS011;5001;51.674;7.868;2022-12-26T09:57:56;3.75;;;2.42;;
9924;SDS011;5001;51.674;7.868;2022-12-26T10:00:21;4.53;;;2.10;;
9924;SDS011;5001;51.674;7.868;2022-12-26T10:02:58;2.97;;;2.10;;
9924;SDS011;5001;51.674;7.868;2022-12-26T10:05:39;3.60;;;2.30;;
9924;SDS011;5001;51.674;7.868;2022-12-26T10:11:06;3.53;;;2.40;;
9924;SDS011;5001;51.674;7.868;2022-12-26T10:13:52;3.70;;;2.85;;
9924;SDS011;5001;51.674;7.868;2022-12-26T10:25:22;3.63;;;2.28;;
9924;SDS011;5001;51.674;7.868;2022-12-26T10:27:59;4.50;;;2.35;;
9924;SDS011;5001;51.674;7.868;2022-12-26T10:30:34;2.28;;;1.45;;
9924;SDS011;5001;51.674;7.868;2022-12-26T10:33:10;4.25;;;1.25;;
9924;SDS011;5001;51.674;7.868;2022-12-26T10:35:43;1.42;;;1.27;;
9924;SDS011;5001;51.674;7.868;2022-12-26T10:41:07;1.53;;;1.20;;
9924;SDS011;5001;51.674;7.868;2022-12-26T10:43:40;3.13;;;1.43;;
9924;SDS011;5001;51.674;7.868;2022-12-26T10:46:35;3.97;;;1.60;;
9924;SDS011;5001;51.674;7.868;2022-12-26T10:49:11;4.03;;;1.40;;
9924;SDS011;5001;51.674;7.868;2022-12-26T10:51:41;3.70;;;1.27;;
9924;SDS011;5001;51.674;7.868;2022-12-26T10:54:12;3.23;;;1.53;;
9924;SDS011;5001;51.674;7.868;2022-12-26T10:56:43;3.23;;;1.23;;
9924;SDS011;5001;51.674;7.868;2022-12-26T10:59:17;2.93;;;1.63;;
9924;SDS011;5001;51.674;7.868;2022-12-26T11:01:47;2.67;;;1.27;;
9924;SDS011;5001;51.674;7.868;2022-12-26T11:04:24;4.40;;;1.57;;
9924;SDS011;5001;51.674;7.868;2022-12-26T11:07:14;4.53;;;1.77;;
9924;SDS011;5001;51.674;7.868;2022-12-26T11:09:43;4.07;;;1.60;;
9924;SDS011;5001;51.674;7.868;2022-12-26T11:15:16;4.10;;;1.40;;
9924;SDS011;5001;51.674;7.868;2022-12-26T11:18:14;2.60;;;1.73;;
9924;SDS011;5001;51.674;7.868;2022-12-26T11:20:42;3.30;;;1.47;;
9924;SDS011;5001;51.674;7.868;2022-12-26T11:23:21;2.00;;;1.20;;
9924;SDS011;5001;51.674;7.868;2022-12-26T11:25:54;2.17;;;1.40;;
9924;SDS011;5001;51.674;7.868;2022-12-26T11:28:30;3.23;;;1.40;;
9924;SDS011;5001;51.674;7.868;2022-12-26T11:31:00;8.10;;;1.80;;
9924;SDS011;5001;51.674;7.868;2022-12-26T11:33:40;4.53;;;1.67;;
9924;SDS011;5001;51.674;7.868;2022-12-26T11:38:46;4.63;;;1.77;;
9924;SDS011;5001;51.674;7.868;2022-12-26T11:41:19;4.07;;;1.30;;
9924;SDS011;5001;51.674;7.868;2022-12-26T11:49:04;6.37;;;1.70;;
9924;SDS011;5001;51.674;7.868;2022-12-26T11:51:37;7.43;;;1.67;;
9924;SDS011;5001;51.674;7.868;2022-12-26T11:54:12;8.63;;;2.03;;
9924;SDS011;5001;51.674;7.868;2022-12-26T11:56:44;3.77;;;1.67;;
9924;SDS011;5001;51.674;7.868;2022-12-26T11:59:18;4.07;;;1.60;;
9924;SDS011;5001;51.674;7.868;2022-12-26T12:01:47;6.63;;;1.90;;
9924;SDS011;5001;51.674;7.868;2022-12-26T12:04:35;8.63;;;1.87;;
9924;SDS011;5001;51.674;7.868;2022-12-26T12:07:08;12.03;;;4.97;;
9924;SDS011;5001;51.674;7.868;2022-12-26T12:13:12;8.00;;;2.10;;
9924;SDS011;5001;51.674;7.868;2022-12-26T12:16:46;2.80;;;1.60;;
9924;SDS011;5001;51.674;7.868;2022-12-26T12:21:43;1.67;;;1.40;;
9924;SDS011;5001;51.674;7.868;2022-12-26T12:24:27;2.77;;;1.70;;
9924;SDS011;5001;51.674;7.868;2022-12-26T12:36:10;3.57;;;2.00;;
9924;SDS011;5001;51.674;7.868;2022-12-26T12:44:29;5.70;;;4.37;;
9924;SDS011;5001;51.674;7.868;2022-12-26T12:47:21;2.50;;;1.53;;
9924;SDS011;5001;51.674;7.868;2022-12-26T12:50:20;4.70;;;2.03;;
9924;SDS011;5001;51.674;7.868;2022-12-26T12:56:00;3.17;;;1.97;;
9924;SDS011;5001;51.674;7.868;2022-12-26T13:01:42;4.70;;;2.10;;
9924;SDS011;5001;51.674;7.868;2022-12-26T13:06:48;3.20;;;1.60;;
9924;SDS011;5001;51.674;7.868;2022-12-26T13:09:20;6.47;;;1.80;;
9924;SDS011;5001;51.674;7.868;2022-12-26T13:11:57;6.57;;;2.00;;
9924;SDS011;5001;51.674;7.868;2022-12-26T13:14:38;4.83;;;1.90;;
9924;SDS011;5001;51.674;7.868;2022-12-26T13:17:13;4.80;;;2.23;;
9924;SDS011;5001;51.674;7.868;2022-12-26T13:19:48;6.80;;;2.07;;
9924;SDS011;5001;51.674;7.868;2022-12-26T13:22:30;3.33;;;1.50;;
9924;SDS011;5001;51.674;7.868;2022-12-26T13:25:22;3.73;;;1.60;;
9924;SDS011;5001;51.674;7.868;2022-12-26T13:27:52;4.60;;;1.80;;
9924;SDS011;5001;51.674;7.868;2022-12-26T13:30:35;5.27;;;2.33;;
9924;SDS011;5001;51.674;7.868;2022-12-26T13:33:03;4.00;;;2.93;;
9924;SDS011;5001;51.674;7.868;2022-12-26T13:38:24;6.73;;;4.17;;
9924;SDS011;5001;51.674;7.868;2022-12-26T13:41:19;7.07;;;3.00;;
9924;SDS011;5001;51.674;7.868;2022-12-26T13:44:26;3.20;;;2.43;;
9924;SDS011;5001;51.674;7.868;2022-12-26T13:46:55;5.83;;;3.03;;
9924;SDS011;5001;51.674;7.868;2022-12-26T13:49:42;5.30;;;3.00;;
9924;SDS011;5001;51.674;7.868;2022-12-26T13:55:17;4.63;;;2.90;;
9924;SDS011;5001;51.674;7.868;2022-12-26T14:00:00;8.97;;;4.13;;
9924;SDS011;5001;51.674;7.868;2022-12-26T14:13:45;6.07;;;3.23;;
9924;SDS011;5001;51.674;7.868;2022-12-26T14:16:25;5.10;;;3.27;;
9924;SDS011;5001;51.674;7.868;2022-12-26T14:25:02;9.13;;;3.63;;
9924;SDS011;5001;51.674;7.868;2022-12-26T14:30:32;4.30;;;3.00;;
9924;SDS011;5001;51.674;7.868;2022-12-26T14:33:23;11.17;;;3.53;;
9924;SDS011;5001;51.674;7.868;2022-12-26T14:41:26;12.77;;;3.07;;
9924;SDS011;5001;51.674;7.868;2022-12-26T14:49:35;9.27;;;2.23;;
9924;SDS011;5001;51.674;7.868;2022-12-26T14:54:50;8.97;;;2.43;;
9924;SDS011;5001;51.674;7.868;2022-12-26T15:06:03;6.60;;;2.30;;
9924;SDS011;5001;51.674;7.868;2022-12-26T15:14:13;8.87;;;2.43;;
9924;SDS011;5001;51.674;7.868;2022-12-26T15:19:38;8.30;;;3.13;;
9924;SDS011;5001;51.674;7.868;2022-12-26T15:36:24;12.37;;;6.43;;
9924;SDS011;5001;51.674;7.868;2022-12-26T15:39:11;8.27;;;3.17;;
9924;SDS011;5001;51.674;7.868;2022-12-26T15:41:45;13.20;;;6.50;;
9924;SDS011;5001;51.674;7.868;2022-12-26T15:50:14;6.63;;;2.53;;
9924;SDS011;5001;51.674;7.868;2022-12-26T16:00:50;6.97;;;2.37;;
9924;SDS011;5001;51.674;7.868;2022-12-26T16:11:44;9.37;;;2.97;;
9924;SDS011;5001;51.674;7.868;2022-12-26T16:14:23;5.73;;;2.87;;
9924;SDS011;5001;51.674;7.868;2022-12-26T16:16:53;6.73;;;2.63;;
9924;SDS011;5001;51.674;7.868;2022-12-26T16:19:34;6.63;;;2.57;;
9924;SDS011;5001;51.674;7.868;2022-12-26T16:22:02;6.80;;;2.47;;
9924;SDS011;5001;51.674;7.868;2022-12-26T16:24:50;8.20;;;3.13;;
9924;SDS011;5001;51.674;7.868;2022-12-26T16:27:20;10.47;;;3.03;;
9924;SDS011;5001;51.674;7.868;2022-12-26T16:29:51;10.53;;;3.47;;
9924;SDS011;5001;51.674;7.868;2022-12-26T16:32:25;9.27;;;2.50;;
9924;SDS011;5001;51.674;7.868;2022-12-26T16:34:56;16.13;;;5.87;;
9924;SDS011;5001;51.674;7.868;2022-12-26T16:37:24;6.13;;;2.87;;
9924;SDS011;5001;51.674;7.868;2022-12-26T16:42:37;9.63;;;2.37;;
9924;SDS011;5001;51.674;7.868;2022-12-26T16:45:16;6.43;;;2.57;;
9924;SDS011;5001;51.674;7.868;2022-12-26T16:47:44;7.60;;;2.50;;
9924;SDS011;5001;51.674;7.868;2022-12-26T16:50:17;12.70;;;2.27;;
9924;SDS011;5001;51.674;7.868;2022-12-26T16:52:47;10.47;;;3.07;;
9924;SDS011;5001;51.674;7.868;2022-12-26T16:55:22;3.97;;;2.33;;
9924;SDS011;5001;51.674;7.868;2022-12-26T16:57:59;6.77;;;2.40;;
9924;SDS011;5001;51.674;7.868;2022-12-26T17:00:29;9.37;;;2.73;;
9924;SDS011;5001;51.674;7.868;2022-12-26T17:02:58;6.57;;;2.83;;
9924;SDS011;5001;51.674;7.868;2022-12-26T17:05:30;8.63;;;4.17;;
9924;SDS011;5001;51.674;7.868;2022-12-26T17:08:01;5.40;;;3.87;;
9924;SDS011;5001;51.674;7.868;2022-12-26T17:10:30;9.83;;;4.73;;
9924;SDS011;5001;51.674;7.868;2022-12-26T17:13:01;13.47;;;4.07;;
9924;SDS011;5001;51.674;7.868;2022-12-26T17:15:38;7.20;;;3.80;;
9924;SDS011;5001;51.674;7.868;2022-12-26T17:18:29;16.20;;;8.00;;
9924;SDS011;5001;51.674;7.868;2022-12-26T17:21:25;11.27;;;7.27;;
9924;SDS011;5001;51.674;7.868;2022-12-26T17:26:38;5.40;;;2.90;;
9924;SDS011;5001;51.674;7.868;2022-12-26T17:32:00;6.13;;;2.50;;
9924;SDS011;5001;51.674;7.868;2022-12-26T17:34:33;7.80;;;4.40;;
9924;SDS011;5001;51.674;7.868;2022-12-26T17:37:03;11.00;;;6.57;;
9924;SDS011;5001;51.674;7.868;2022-12-26T17:39:53;6.70;;;3.00;;
9924;SDS011;5001;51.674;7.868;2022-12-26T17:42:29;7.03;;;2.97;;
9924;SDS011;5001;51.674;7.868;2022-12-26T17:45:13;10.27;;;3.47;;
9924;SDS011;5001;51.674;7.868;2022-12-26T17:47:41;7.63;;;2.87;;
9924;SDS011;5001;51.674;7.868;2022-12-26T17:50:09;7.80;;;3.30;;
9924;SDS011;5001;51.674;7.868;2022-12-26T17:52:36;8.13;;;3.60;;
9924;SDS011;5001;51.674;7.868;2022-12-26T17:55:05;8.40;;;3.27;;
9924;SDS011;5001;51.674;7.868;2022-12-26T17:57:38;16.03;;;3.40;;
9924;SDS011;5001;51.674;7.868;2022-12-26T18:00:06;8.70;;;3.80;;
9924;SDS011;5001;51.674;7.868;2022-12-26T18:02:44;8.10;;;3.73;;
9924;SDS011;5001;51.674;7.868;2022-12-26T18:05:12;11.47;;;4.00;;
9924;SDS011;5001;51.674;7.868;2022-12-26T18:07:39;11.47;;;4.50;;
9924;SDS011;5001;51.674;7.868;2022-12-26T18:10:06;13.47;;;4.70;;
9924;SDS011;5001;51.674;7.868;2022-12-26T18:12:43;9.90;;;4.07;;
9924;SDS011;5001;51.674;7.868;2022-12-26T18:15:11;10.13;;;3.90;;
9924;SDS011;5001;51.674;7.868;2022-12-26T18:17:38;8.57;;;4.17;;
9924;SDS011;5001;51.674;7.868;2022-12-26T18:20:05;11.43;;;3.70;;
9924;SDS011;5001;51.674;7.868;2022-12-26T18:22:33;10.30;;;4.63;;
9924;SDS011;5001;51.674;7.868;2022-12-26T18:25:00;13.67;;;3.90;;
9924;SDS011;5001;51.674;7.868;2022-12-26T18:27:29;10.73;;;3.87;;
9924;SDS011;5001;51.674;7.868;2022-12-26T18:29:58;7.10;;;3.10;;
9924;SDS011;5001;51.674;7.868;2022-12-26T18:32:30;10.17;;;3.70;;
9924;SDS011;5001;51.674;7.868;2022-12-26T18:34:58;9.03;;;3.90;;
9924;SDS011;5001;51.674;7.868;2022-12-26T18:37:27;9.67;;;3.80;;
9924;SDS011;5001;51.674;7.868;2022-12-26T18:39:55;9.83;;;3.63;;
9924;SDS011;5001;51.674;7.868;2022-12-26T18:42:22;15.20;;;4.93;;
9924;SDS011;5001;51.674;7.868;2022-12-26T18:44:51;13.37;;;3.10;;
9924;SDS011;5001;51.674;7.868;2022-12-26T18:47:18;5.70;;;3.23;;
9924;SDS011;5001;51.674;7.868;2022-12-26T18:49:47;6.93;;;2.80;;
9924;SDS011;5001;51.674;7.868;2022-12-26T18:52:14;6.27;;;2.90;;
9924;SDS011;5001;51.674;7.868;2022-12-26T18:54:43;5.60;;;2.70;;
9924;SDS011;5001;51.674;7.868;2022-12-26T18:57:14;8.63;;;2.77;;
9924;SDS011;5001;51.674;7.868;2022-12-26T18:59:44;8.40;;;2.93;;
9924;SDS011;5001;51.674;7.868;2022-12-26T19:02:16;7.73;;;2.50;;
9924;SDS011;5001;51.674;7.868;2022-12-26T19:04:45;6.53;;;2.77;;
9924;SDS011;5001;51.674;7.868;2022-12-26T19:07:16;6.37;;;3.00;;
9924;SDS011;5001;51.674;7.868;2022-12-26T19:09:49;4.57;;;2.43;;
9924;SDS011;5001;51.674;7.868;2022-12-26T19:12:21;5.33;;;2.80;;
9924;SDS011;5001;51.674;7.868;2022-12-26T19:14:49;11.70;;;3.13;;
9924;SDS011;5001;51.674;7.868;2022-12-26T19:17:16;9.07;;;3.83;;
9924;SDS011;5001;51.674;7.868;2022-12-26T19:19:43;8.13;;;2.70;;